CheckWX is a tool to help pilots better visualize weather data.  It is not intended as a substitute for an official pre-flight weather briefing.

15:10:28 UTC

EGGP TAF
Liverpool John Lennon Airport
Liverpool, United Kingdom
TAF EGGP 231054Z 2312/2412 32008KT 9999 FEW035 BECMG 2409/2412 26015G25KT

Mar-23@
12:00 UTC

Mar-23 @ 12:00 UTC

Mar-24@
09:00 UTC

Mar-24 @ 09:00 UTC

TAF EGGP 231054Z 2312/2412 32008KT 9999 FEW035
Wind
  • 320° at 8 KTS
Cloud Levels
  • Few at 3,500' AGL

Mar-24@
09:00 UTC

Mar-24 @ 09:00 UTC

Mar-24@
12:00 UTC

Mar-24 @ 12:00 UTC

BECMG 2409/2412 26015G25KT

Becoming

Becoming Conditions expected by Sun, Mar 24, 2019 @ 12:00 UTC

Wind
  • 260° at 15 KTS
  • {Gusting to 25 KTS
Cloud Levels
  • Few at 3,500' AGL